CheckWX is a tool to help pilots better visualize weather data.  It is not intended as a substitute for an official pre-flight weather briefing.

10:11:46 UTC

KAXX METAR
Angel Fire Airport
Angel Fire, New Mexico, USA
Current

17 mins ago

KAXX 250955Z AUTO 00000KT 10SM SCT060 SCT075 OVC085 M09/M14 A2996 RMK AO2 T10871144
Observed
Feb-25 @ 09:55 UTC
Visibility
10 SM
Flight Rules
VFR
Cloud Levels
  • Scattered at 6,000' AGL
  • Scattered at 7,500' AGL
  • Overcast at 8,500' AGL
Temperature
-9°C / 16°F
Dewpoint
-14°C / 7°F
Humidity
67%
Altimeter
29.96" Hg
Pressure
1014.52 hPa
Previous

37 mins ago

KAXX 250935Z AUTO 24004KT 10SM BKN050 OVC075 M09/M13 A2996 RMK AO2 T10901127
Observed
Feb-25 @ 09:35 UTC
Wind
  • 240° at 4 KTS
Visibility
10 SM
Flight Rules
VFR
Cloud Levels
  • Broken at 5,000' AGL
  • Overcast at 7,500' AGL
Temperature
-9°C / 16°F
Dewpoint
-13°C / 9°F
Humidity
73%
Altimeter
29.96" Hg
Pressure
1014.52 hPa
Previous

57 mins ago

KAXX 250915Z AUTO 25008KT 10SM SCT022 SCT034 OVC050 M08/M14 A2996 RMK AO2 T10841141
Observed
Feb-25 @ 09:15 UTC
Wind
  • 250° at 8 KTS
Visibility
10 SM
Flight Rules
VFR
Cloud Levels
  • Scattered at 2,200' AGL
  • Scattered at 3,400' AGL
  • Overcast at 5,000' AGL
Temperature
-8°C / 18°F
Dewpoint
-14°C / 7°F
Humidity
62%
Altimeter
29.96" Hg
Pressure
1014.52 hPa